createdAt,value
2018-07-30T00:00:35.968Z,24.60
2018-07-30T00:03:04.705Z,24.60
2018-07-30T00:05:33.408Z,24.50
2018-07-30T00:08:02.146Z,24.60
2018-07-30T00:10:30.844Z,24.60
2018-07-30T00:12:59.555Z,24.60
2018-07-30T00:15:28.275Z,24.50
2018-07-30T00:17:57.331Z,24.60
2018-07-30T00:20:26.048Z,24.60
2018-07-30T00:22:54.859Z,24.60
2018-07-30T00:25:23.628Z,24.60
2018-07-30T00:27:52.338Z,24.50
2018-07-30T00:30:21.074Z,24.50
2018-07-30T00:32:49.878Z,24.60
2018-07-30T00:35:18.701Z,24.50
2018-07-30T00:37:47.366Z,24.50
2018-07-30T00:40:17.003Z,24.50
2018-07-30T00:42:47.454Z,24.40
2018-07-30T00:45:16.724Z,24.20
2018-07-30T00:47:45.514Z,24.20
2018-07-30T00:50:14.196Z,24.30
2018-07-30T00:52:42.925Z,24.40
2018-07-30T00:55:11.647Z,24.40
2018-07-30T00:57:40.393Z,24.30
2018-07-30T01:00:09.493Z,24.40
2018-07-30T01:02:38.249Z,24.50
2018-07-30T01:05:07.239Z,24.40
2018-07-30T01:07:36.050Z,24.30
2018-07-30T01:10:04.878Z,24.30
2018-07-30T01:12:33.600Z,24.40
2018-07-30T01:15:02.331Z,24.50
2018-07-30T01:17:31.093Z,24.40
2018-07-30T01:19:59.801Z,24.50
2018-07-30T01:22:28.518Z,24.50
2018-07-30T01:24:57.347Z,24.50
2018-07-30T01:27:26.003Z,24.50
2018-07-30T01:29:54.719Z,24.50
2018-07-30T01:32:23.510Z,24.40
2018-07-30T01:34:52.199Z,24.50
2018-07-30T01:37:20.899Z,24.50
2018-07-30T01:42:18.340Z,24.60
2018-07-30T01:44:47.126Z,24.60
2018-07-30T01:47:15.835Z,24.70
2018-07-30T01:49:44.621Z,24.80
2018-07-30T01:52:13.296Z,24.70
2018-07-30T01:54:42.015Z,24.60
2018-07-30T01:59:39.267Z,24.50
2018-07-30T02:02:07.951Z,24.40
2018-07-30T02:04:36.768Z,24.40
2018-07-30T02:09:34.249Z,24.50
2018-07-30T02:14:31.375Z,24.60
2018-07-30T02:17:00.120Z,24.60
2018-07-30T02:19:28.962Z,24.60
2018-07-30T02:21:57.674Z,24.60
2018-07-30T02:24:26.415Z,24.60
2018-07-30T02:26:55.228Z,24.60
2018-07-30T02:29:23.932Z,24.50
2018-07-30T02:31:52.807Z,24.60
2018-07-30T02:34:21.479Z,24.60
2018-07-30T02:36:50.287Z,24.60
2018-07-30T02:39:18.991Z,24.60
2018-07-30T02:44:16.251Z,24.60
2018-07-30T02:46:45.003Z,24.60
2018-07-30T02:49:13.696Z,24.60
2018-07-30T02:51:42.457Z,24.60
2018-07-30T02:54:11.527Z,24.60
2018-07-30T02:56:40.228Z,24.60
2018-07-30T02:59:08.930Z,24.70
2018-07-30T03:01:37.763Z,24.70
2018-07-30T03:04:09.482Z,24.80
2018-07-30T03:06:38.307Z,24.80
2018-07-30T03:09:08.328Z,24.80
2018-07-30T03:11:37.033Z,24.80
2018-07-30T03:16:34.590Z,24.80
2018-07-30T03:19:03.379Z,24.80
2018-07-30T03:21:32.151Z,24.70
2018-07-30T03:24:00.884Z,24.70
2018-07-30T03:26:29.603Z,24.70
2018-07-30T03:28:58.430Z,24.60
2018-07-30T03:31:27.111Z,24.60
2018-07-30T03:33:55.863Z,24.60
2018-07-30T03:36:24.675Z,24.60
2018-07-30T03:38:53.416Z,24.60
2018-07-30T03:41:22.136Z,24.60
2018-07-30T03:43:50.860Z,24.50
2018-07-30T03:46:19.891Z,24.50
2018-07-30T03:48:48.582Z,24.50
2018-07-30T03:51:17.303Z,24.50
2018-07-30T03:53:46.217Z,24.50
2018-07-30T03:56:14.929Z,24.60
2018-07-30T04:03:40.615Z,24.50
2018-07-30T04:06:09.358Z,24.60
2018-07-30T04:08:38.059Z,24.50
2018-07-30T04:11:06.795Z,24.60
2018-07-30T04:13:35.514Z,24.60
2018-07-30T04:16:04.228Z,24.60
2018-07-30T04:18:32.942Z,24.60
2018-07-30T04:21:01.732Z,24.50
2018-07-30T04:23:30.835Z,24.50
2018-07-30T04:25:59.557Z,24.50
2018-07-30T04:28:28.266Z,24.50
2018-07-30T04:33:25.753Z,24.50
2018-07-30T04:35:54.523Z,24.60
2018-07-30T04:38:23.276Z,24.60
2018-07-30T04:40:52.006Z,24.60
2018-07-30T04:43:20.723Z,24.60
2018-07-30T04:45:49.455Z,24.60
2018-07-30T04:48:18.184Z,24.70
2018-07-30T04:50:50.867Z,24.70
2018-07-30T04:53:19.672Z,24.70
2018-07-30T04:55:48.391Z,24.70
2018-07-30T04:58:17.102Z,24.70
2018-07-30T05:03:14.290Z,24.70
2018-07-30T05:05:43.041Z,24.70
2018-07-30T05:08:11.752Z,24.80
2018-07-30T05:10:40.474Z,24.80
2018-07-30T05:13:09.207Z,24.80
2018-07-30T05:15:38.051Z,24.80
2018-07-30T05:18:06.810Z,24.90
2018-07-30T05:23:03.964Z,24.80
2018-07-30T05:28:01.232Z,25.00
2018-07-30T05:30:30.582Z,25.00
2018-07-30T05:32:59.439Z,25.10
2018-07-30T05:37:56.755Z,25.10
2018-07-30T05:40:25.487Z,25.20
2018-07-30T05:45:22.823Z,25.20
2018-07-30T05:47:51.979Z,25.10
2018-07-30T05:50:20.685Z,25.20
2018-07-30T05:52:49.402Z,25.20
2018-07-30T05:55:18.308Z,25.10
2018-07-30T05:57:47.098Z,25.10
2018-07-30T06:00:15.887Z,25.10
2018-07-30T06:02:44.605Z,25.20
2018-07-30T06:07:41.817Z,25.20
2018-07-30T06:10:10.552Z,25.20
2018-07-30T06:15:07.712Z,25.20
2018-07-30T06:17:36.444Z,25.20
2018-07-30T06:20:07.931Z,25.20
2018-07-30T06:22:36.759Z,25.30
2018-07-30T06:30:03.056Z,25.40
2018-07-30T06:32:31.984Z,25.40
2018-07-30T06:35:00.678Z,25.50
2018-07-30T06:37:29.462Z,25.50
2018-07-30T06:39:58.152Z,25.50
2018-07-30T06:42:27.213Z,25.50
2018-07-30T06:44:55.925Z,25.50
2018-07-30T06:47:24.655Z,25.50
2018-07-30T06:49:53.508Z,25.50
2018-07-30T06:52:22.430Z,25.50
2018-07-30T06:54:51.148Z,25.50
2018-07-30T06:57:20.080Z,25.50
2018-07-30T06:59:48.806Z,25.50
2018-07-30T07:02:17.532Z,25.50
2018-07-30T07:04:46.250Z,25.50
2018-07-30T07:07:15.036Z,25.50
2018-07-30T07:09:43.792Z,25.50
2018-07-30T07:12:12.483Z,25.50
2018-07-30T07:14:41.196Z,25.60
2018-07-30T07:17:10.325Z,25.60
2018-07-30T07:19:39.331Z,25.60
2018-07-30T07:22:08.162Z,25.60
2018-07-30T07:24:37.210Z,25.60
2018-07-30T07:27:05.932Z,25.70
2018-07-30T07:29:34.677Z,25.70
2018-07-30T07:32:03.432Z,25.70
2018-07-30T07:34:32.144Z,25.70
2018-07-30T07:39:29.307Z,25.80
2018-07-30T07:44:26.518Z,25.90
2018-07-30T07:46:55.360Z,25.90
2018-07-30T07:51:53.648Z,25.80
2018-07-30T07:54:22.439Z,25.80
2018-07-30T07:56:51.198Z,25.80
2018-07-30T07:59:19.958Z,25.80
2018-07-30T08:01:48.695Z,25.80
2018-07-30T08:04:17.480Z,25.80
2018-07-30T08:06:46.279Z,25.80
2018-07-30T08:09:15.031Z,25.80
2018-07-30T08:11:43.783Z,25.90
2018-07-30T08:14:12.548Z,25.90
2018-07-30T08:16:41.339Z,25.90
2018-07-30T08:19:10.071Z,26.00
2018-07-30T08:21:38.799Z,26.10
2018-07-30T08:24:07.562Z,26.10
2018-07-30T08:26:36.324Z,26.10
2018-07-30T08:29:05.194Z,26.10
2018-07-30T08:31:34.096Z,26.10
2018-07-30T08:34:02.843Z,26.20
2018-07-30T08:36:31.586Z,26.20
2018-07-30T08:39:00.383Z,26.20
2018-07-30T08:41:29.116Z,26.30
2018-07-30T08:43:57.911Z,26.30
2018-07-30T08:46:26.692Z,26.40
2018-07-30T08:48:55.608Z,26.40
2018-07-30T08:51:24.252Z,26.40
2018-07-30T08:53:53.059Z,26.50
2018-07-30T08:56:21.852Z,26.50
2018-07-30T08:58:50.666Z,26.60
2018-07-30T09:01:19.454Z,26.60
2018-07-30T09:03:48.191Z,26.70
2018-07-30T09:06:16.957Z,26.70
2018-07-30T09:08:45.695Z,26.70
2018-07-30T09:11:14.455Z,26.70
2018-07-30T09:13:43.209Z,26.80
2018-07-30T09:16:11.952Z,26.80
2018-07-30T09:18:40.882Z,26.90
2018-07-30T09:21:09.616Z,26.90
2018-07-30T09:23:38.425Z,27.00
2018-07-30T09:26:07.311Z,27.00
2018-07-30T09:28:36.016Z,27.00
2018-07-30T09:31:05.844Z,27.00
2018-07-30T09:36:03.265Z,27.10
2018-07-30T09:38:32.013Z,27.10
2018-07-30T09:43:29.243Z,27.20
2018-07-30T09:45:57.999Z,27.30
2018-07-30T09:48:26.740Z,27.30
2018-07-30T09:53:24.102Z,27.30
2018-07-30T09:55:53.103Z,27.40
2018-07-30T09:58:21.833Z,27.40
2018-07-30T10:00:56.084Z,27.50
2018-07-30T10:03:24.802Z,27.50
2018-07-30T10:05:53.544Z,27.50
2018-07-30T10:08:22.337Z,27.60
2018-07-30T10:10:51.353Z,27.60
2018-07-30T10:13:20.550Z,27.60
2018-07-30T10:15:49.341Z,27.60
2018-07-30T10:18:18.154Z,27.60
2018-07-30T10:20:46.907Z,27.60
2018-07-30T10:23:15.639Z,27.70
2018-07-30T10:28:12.848Z,27.70
2018-07-30T10:30:41.846Z,27.80
2018-07-30T10:33:10.619Z,27.80
2018-07-30T10:35:39.415Z,27.90
2018-07-30T10:38:08.276Z,27.90
2018-07-30T10:40:36.965Z,28.00
2018-07-30T10:43:05.678Z,28.00
2018-07-30T10:45:34.501Z,28.00
2018-07-30T10:48:03.255Z,28.00
2018-07-30T10:50:32.036Z,27.90
2018-07-30T10:53:01.203Z,28.00
2018-07-30T10:55:29.935Z,28.00
2018-07-30T10:57:58.658Z,28.00
2018-07-30T11:00:27.436Z,28.00
2018-07-30T11:02:56.465Z,28.00
2018-07-30T11:05:25.226Z,28.10
2018-07-30T11:07:54.110Z,28.20
2018-07-30T11:10:22.716Z,28.20
2018-07-30T11:12:51.444Z,28.20
2018-07-30T11:15:20.273Z,28.30
2018-07-30T11:17:49.007Z,28.30
2018-07-30T11:20:17.892Z,28.40
2018-07-30T11:22:46.600Z,28.40
2018-07-30T11:25:16.456Z,28.40
2018-07-30T11:27:45.208Z,28.40
2018-07-30T11:30:13.965Z,28.50
2018-07-30T11:32:42.695Z,28.50
2018-07-30T11:35:11.420Z,28.50
2018-07-30T11:40:08.671Z,28.60
2018-07-30T11:42:37.587Z,28.60
2018-07-30T11:47:34.744Z,28.70
2018-07-30T11:50:03.758Z,28.70
2018-07-30T11:52:32.491Z,28.80
2018-07-30T11:55:01.287Z,28.80
2018-07-30T11:57:30.113Z,28.80
2018-07-30T12:02:27.300Z,28.80
2018-07-30T12:04:56.012Z,28.80
2018-07-30T12:07:24.839Z,28.80
2018-07-30T12:09:53.719Z,28.80
2018-07-30T12:12:22.520Z,28.80
2018-07-30T12:14:51.231Z,28.90
2018-07-30T12:19:48.464Z,28.90
2018-07-30T12:22:17.179Z,28.90
2018-07-30T12:27:14.454Z,29.00
2018-07-30T12:32:11.610Z,29.00
2018-07-30T12:34:40.344Z,29.00
2018-07-30T12:37:09.094Z,29.10
2018-07-30T12:39:37.828Z,29.10
2018-07-30T12:42:06.911Z,29.10
2018-07-30T12:44:35.631Z,29.10
2018-07-30T12:47:04.366Z,29.10
2018-07-30T12:49:33.111Z,29.20
2018-07-30T12:52:01.852Z,29.20
2018-07-30T12:54:30.659Z,29.20
2018-07-30T12:56:59.541Z,29.20
2018-07-30T12:59:28.243Z,29.20
2018-07-30T13:01:56.986Z,29.20
2018-07-30T13:06:54.191Z,29.30
2018-07-30T13:11:51.314Z,29.40
2018-07-30T13:14:23.766Z,29.50
2018-07-30T13:16:52.513Z,29.50
2018-07-30T13:21:49.654Z,29.50
2018-07-30T13:26:53.279Z,29.70
2018-07-30T13:31:50.430Z,29.70
2018-07-30T13:36:47.603Z,29.80
2018-07-30T13:39:16.307Z,29.80
2018-07-30T13:41:45.048Z,29.80
2018-07-30T13:44:13.833Z,29.80
2018-07-30T13:46:42.541Z,29.80
2018-07-30T13:49:11.283Z,29.80
2018-07-30T13:51:40.007Z,29.80
2018-07-30T13:54:08.829Z,29.90
2018-07-30T13:56:37.495Z,29.90
2018-07-30T13:59:06.216Z,29.90
2018-07-30T14:01:34.923Z,29.90
2018-07-30T14:04:03.703Z,30.00
2018-07-30T14:06:32.538Z,30.00
2018-07-30T14:09:01.139Z,30.00
2018-07-30T14:11:30.152Z,30.10
2018-07-30T14:13:58.909Z,30.10
2018-07-30T14:16:27.592Z,30.20
2018-07-30T14:18:56.351Z,30.20
2018-07-30T14:21:25.172Z,30.30
2018-07-30T14:23:54.205Z,30.40
2018-07-30T14:26:22.914Z,30.40
2018-07-30T14:28:51.755Z,30.40
2018-07-30T14:31:24.229Z,30.40
2018-07-30T14:33:53.403Z,30.40
2018-07-30T14:36:22.147Z,30.40
2018-07-30T14:38:50.886Z,30.40
2018-07-30T14:41:19.586Z,30.40
2018-07-30T14:43:48.372Z,30.40
2018-07-30T14:46:17.149Z,30.50
2018-07-30T14:48:45.990Z,30.60
2018-07-30T14:51:14.715Z,30.60
2018-07-30T14:53:43.448Z,30.60
2018-07-30T14:56:12.151Z,30.60
2018-07-30T14:58:40.879Z,30.60
2018-07-30T15:01:09.605Z,30.50
2018-07-30T15:06:07.065Z,30.40
2018-07-30T15:08:35.727Z,30.40
2018-07-30T15:11:04.487Z,30.40
2018-07-30T15:13:33.217Z,30.40
2018-07-30T15:16:01.985Z,30.30
2018-07-30T15:18:30.747Z,30.30
2018-07-30T15:20:59.482Z,30.30
2018-07-30T15:23:28.225Z,30.40
2018-07-30T15:25:57.011Z,30.40
2018-07-30T15:28:25.727Z,30.40
2018-07-30T15:30:54.471Z,30.40
2018-07-30T15:33:23.216Z,30.40
2018-07-30T15:35:51.963Z,30.50
2018-07-30T15:38:20.760Z,30.40
2018-07-30T15:40:49.798Z,30.50
2018-07-30T15:43:18.502Z,30.50
2018-07-30T15:45:54.566Z,30.60
2018-07-30T15:48:23.302Z,30.60
2018-07-30T15:50:52.047Z,30.60
2018-07-30T15:53:20.842Z,30.60
2018-07-30T15:55:49.574Z,30.70
2018-07-30T15:58:18.405Z,30.70
2018-07-30T16:00:47.103Z,30.70
2018-07-30T16:03:16.278Z,30.70
2018-07-30T16:05:45.025Z,30.70
2018-07-30T16:08:13.748Z,30.70
2018-07-30T16:10:42.526Z,30.70
2018-07-30T16:13:11.315Z,30.70
2018-07-30T16:15:40.077Z,30.70
2018-07-30T16:18:08.854Z,30.70
2018-07-30T16:20:37.652Z,30.70
2018-07-30T16:23:06.526Z,30.70
2018-07-30T16:25:35.175Z,30.70
2018-07-30T16:28:03.972Z,30.80
2018-07-30T16:30:33.033Z,30.70
2018-07-30T16:33:01.737Z,30.80
2018-07-30T16:35:30.467Z,30.80
2018-07-30T16:37:59.295Z,30.80
2018-07-30T16:40:28.334Z,30.90
2018-07-30T16:42:57.048Z,30.90
2018-07-30T16:45:25.763Z,31.00
2018-07-30T16:47:54.613Z,31.00
2018-07-30T16:50:23.290Z,31.00
2018-07-30T16:52:52.039Z,31.00
2018-07-30T16:55:20.846Z,31.10
2018-07-30T17:00:18.347Z,31.10
2018-07-30T17:02:47.775Z,31.10
2018-07-30T17:05:18.449Z,31.10
2018-07-30T17:07:48.127Z,31.20
2018-07-30T17:10:16.966Z,31.20
2018-07-30T17:12:45.739Z,31.20
2018-07-30T17:15:14.795Z,31.20
2018-07-30T17:17:43.585Z,31.20
2018-07-30T17:20:13.488Z,31.20
2018-07-30T17:22:43.495Z,31.20
2018-07-30T17:25:12.231Z,31.20
2018-07-30T17:27:41.037Z,31.30
2018-07-30T17:30:10.107Z,31.30
2018-07-30T17:32:38.830Z,31.30
2018-07-30T17:42:33.848Z,31.10
2018-07-30T17:45:02.595Z,31.10
2018-07-30T17:47:31.324Z,31.00
2018-07-30T17:50:00.120Z,31.20
2018-07-30T17:52:28.998Z,31.40
2018-07-30T17:54:57.785Z,31.40
2018-07-30T17:57:26.531Z,31.30
2018-07-30T17:59:55.280Z,31.20
2018-07-30T18:02:23.994Z,31.10
2018-07-30T18:07:21.171Z,31.00
2018-07-30T18:12:18.654Z,30.90
2018-07-30T18:14:47.367Z,30.90
2018-07-30T18:17:16.155Z,30.80
2018-07-30T18:19:44.940Z,30.70
2018-07-30T18:22:13.659Z,30.60
2018-07-30T18:24:42.461Z,30.60
2018-07-30T18:27:11.247Z,30.50
2018-07-30T18:29:40.044Z,30.40
2018-07-30T18:32:08.807Z,30.40
2018-07-30T18:34:37.640Z,30.30
2018-07-30T18:37:06.359Z,30.30
2018-07-30T18:39:35.296Z,30.20
2018-07-30T18:42:03.984Z,30.20
2018-07-30T18:44:32.762Z,30.20
2018-07-30T18:47:01.568Z,30.10
2018-07-30T18:49:30.296Z,30.10
2018-07-30T18:51:59.103Z,30.00
2018-07-30T18:54:28.271Z,30.00
2018-07-30T18:56:57.615Z,29.90
2018-07-30T18:59:26.343Z,29.90
2018-07-30T19:04:23.652Z,29.80
2018-07-30T19:06:52.490Z,29.80
2018-07-30T19:09:21.275Z,29.70
2018-07-30T19:11:50.053Z,29.70
2018-07-30T19:14:18.742Z,29.70
2018-07-30T19:16:52.179Z,29.60
2018-07-30T19:21:50.539Z,29.60
2018-07-30T19:24:19.985Z,29.50
2018-07-30T19:26:48.752Z,29.50
2018-07-30T19:31:45.928Z,29.40
2018-07-30T19:34:14.785Z,29.40
2018-07-30T19:36:43.513Z,29.40
2018-07-30T19:39:13.531Z,29.30
2018-07-30T19:41:42.325Z,29.30
2018-07-30T19:44:11.148Z,29.30
2018-07-30T19:46:39.855Z,29.20
2018-07-30T19:49:08.611Z,29.20
2018-07-30T19:51:37.370Z,29.20
2018-07-30T19:59:03.253Z,29.00
2018-07-30T20:01:31.800Z,29.00
2018-07-30T20:06:29.308Z,28.90
2018-07-30T20:08:58.984Z,28.90
2018-07-30T20:13:56.187Z,28.90
2018-07-30T20:16:24.922Z,28.90
2018-07-30T20:18:53.964Z,28.90
2018-07-30T20:21:22.799Z,28.90
2018-07-30T20:23:51.513Z,28.90
2018-07-30T20:28:48.710Z,28.80
2018-07-30T20:31:22.888Z,28.80
2018-07-30T20:33:52.249Z,28.70
2018-07-30T20:36:25.195Z,28.70
2018-07-30T20:41:23.704Z,28.70
2018-07-30T20:43:52.868Z,28.60
2018-07-30T20:46:21.615Z,28.60
2018-07-30T20:48:50.674Z,28.50
2018-07-30T20:51:19.365Z,28.50
2018-07-30T20:56:16.509Z,28.50
2018-07-30T21:01:13.779Z,28.60
2018-07-30T21:03:42.574Z,28.60
2018-07-30T21:08:40.718Z,28.50
2018-07-30T21:11:09.426Z,28.50
2018-07-30T21:13:38.138Z,28.40
2018-07-30T21:16:06.867Z,28.40
2018-07-30T21:18:35.671Z,28.30
2018-07-30T21:21:04.408Z,28.30
2018-07-30T21:23:33.203Z,28.30
2018-07-30T21:26:01.879Z,28.30
2018-07-30T21:28:30.584Z,28.20
2018-07-30T21:30:59.307Z,28.20
2018-07-30T21:33:28.032Z,28.20
2018-07-30T21:35:56.779Z,28.20
2018-07-30T21:38:25.608Z,28.20
2018-07-30T21:40:54.323Z,28.20
2018-07-30T21:43:23.185Z,28.20
2018-07-30T21:45:51.911Z,28.10
2018-07-30T21:48:20.642Z,28.10
2018-07-30T21:50:49.402Z,28.00
2018-07-30T21:53:18.214Z,28.00
2018-07-30T21:55:47.336Z,28.00
2018-07-30T21:58:16.063Z,27.90
2018-07-30T22:00:50.092Z,27.80
2018-07-30T22:03:18.867Z,27.80
2018-07-30T22:05:51.864Z,27.80
2018-07-30T22:08:20.639Z,27.80
2018-07-30T22:13:17.767Z,27.80
2018-07-30T22:15:46.815Z,27.80
2018-07-30T22:18:15.522Z,27.80
2018-07-30T22:20:44.348Z,27.80
2018-07-30T22:23:16.275Z,27.80
2018-07-30T22:25:45.026Z,27.70
2018-07-30T22:28:13.726Z,27.70
2018-07-30T22:30:42.474Z,27.70
2018-07-30T22:33:11.159Z,27.70
2018-07-30T22:35:39.896Z,27.70
2018-07-30T22:38:08.741Z,27.70
2018-07-30T22:40:37.499Z,27.70
2018-07-30T22:43:07.439Z,27.70
2018-07-30T22:45:36.127Z,27.70
2018-07-30T22:48:05.255Z,27.60
2018-07-30T22:50:34.383Z,27.60
2018-07-30T22:53:03.107Z,27.60
2018-07-30T22:55:31.891Z,27.50
2018-07-30T22:58:00.679Z,27.50
2018-07-30T23:00:29.392Z,27.50
2018-07-30T23:02:58.149Z,27.50
2018-07-30T23:05:26.942Z,27.50
2018-07-30T23:07:55.668Z,27.50
2018-07-30T23:10:24.378Z,27.50
2018-07-30T23:12:53.226Z,27.50
2018-07-30T23:17:50.368Z,27.40
2018-07-30T23:20:19.095Z,27.40
2018-07-30T23:22:47.814Z,27.30
2018-07-30T23:25:16.552Z,27.30
2018-07-30T23:30:13.682Z,27.30
2018-07-30T23:32:42.419Z,27.20
2018-07-30T23:35:11.175Z,27.20
2018-07-30T23:37:39.947Z,27.20
2018-07-30T23:40:08.659Z,27.10
2018-07-30T23:42:37.383Z,27.10
2018-07-30T23:45:06.119Z,27.10
2018-07-30T23:50:05.247Z,27.10
2018-07-30T23:52:33.928Z,27.00
2018-07-30T23:55:02.851Z,27.00
2018-07-30T23:57:31.506Z,27.00
